sensor_id;sensor_type;location;lat;lon;timestamp;P1;durP1;ratioP1;P2;durP2;ratioP2
39860;SDS011;25529;49.346;20.886;2023-05-07T00:01:16;28.40;;;14.57;;
39860;SDS011;25529;49.346;20.886;2023-05-07T00:03:43;32.13;;;16.13;;
39860;SDS011;25529;49.346;20.886;2023-05-07T00:06:08;28.70;;;15.00;;
39860;SDS011;25529;49.346;20.886;2023-05-07T00:08:33;28.85;;;14.25;;
39860;SDS011;25529;49.346;20.886;2023-05-07T00:10:59;29.63;;;14.95;;
39860;SDS011;25529;49.346;20.886;2023-05-07T00:13:25;29.98;;;15.60;;
39860;SDS011;25529;49.346;20.886;2023-05-07T00:15:51;30.85;;;15.57;;
39860;SDS011;25529;49.346;20.886;2023-05-07T00:18:18;29.73;;;15.65;;
39860;SDS011;25529;49.346;20.886;2023-05-07T00:20:46;28.30;;;15.13;;
39860;SDS011;25529;49.346;20.886;2023-05-07T00:23:11;30.73;;;15.95;;
39860;SDS011;25529;49.346;20.886;2023-05-07T00:25:36;30.92;;;15.07;;
39860;SDS011;25529;49.346;20.886;2023-05-07T00:28:02;35.08;;;16.35;;
39860;SDS011;25529;49.346;20.886;2023-05-07T00:30:31;32.28;;;16.50;;
39860;SDS011;25529;49.346;20.886;2023-05-07T00:32:57;31.15;;;16.83;;
39860;SDS011;25529;49.346;20.886;2023-05-07T00:35:23;30.70;;;15.80;;
39860;SDS011;25529;49.346;20.886;2023-05-07T00:37:48;32.72;;;15.85;;
39860;SDS011;25529;49.346;20.886;2023-05-07T00:40:14;30.98;;;16.13;;
39860;SDS011;25529;49.346;20.886;2023-05-07T00:42:42;32.38;;;16.30;;
39860;SDS011;25529;49.346;20.886;2023-05-07T00:45:12;30.55;;;15.63;;
39860;SDS011;25529;49.346;20.886;2023-05-07T00:47:37;30.95;;;15.70;;
39860;SDS011;25529;49.346;20.886;2023-05-07T00:50:03;38.05;;;16.88;;
39860;SDS011;25529;49.346;20.886;2023-05-07T00:52:29;33.92;;;16.38;;
39860;SDS011;25529;49.346;20.886;2023-05-07T00:54:57;29.25;;;15.90;;
39860;SDS011;25529;49.346;20.886;2023-05-07T00:57:24;30.98;;;15.52;;
39860;SDS011;25529;49.346;20.886;2023-05-07T01:02:34;32.50;;;15.15;;
39860;SDS011;25529;49.346;20.886;2023-05-07T01:05:00;29.77;;;15.68;;
39860;SDS011;25529;49.346;20.886;2023-05-07T01:07:33;29.25;;;15.13;;
39860;SDS011;25529;49.346;20.886;2023-05-07T01:09:59;30.73;;;16.58;;
39860;SDS011;25529;49.346;20.886;2023-05-07T01:12:25;28.02;;;14.93;;
39860;SDS011;25529;49.346;20.886;2023-05-07T01:14:51;31.02;;;15.68;;
39860;SDS011;25529;49.346;20.886;2023-05-07T01:17:17;31.13;;;16.63;;
39860;SDS011;25529;49.346;20.886;2023-05-07T01:22:29;29.08;;;14.90;;
39860;SDS011;25529;49.346;20.886;2023-05-07T01:24:57;33.92;;;15.98;;
39860;SDS011;25529;49.346;20.886;2023-05-07T01:27:24;30.92;;;16.15;;
39860;SDS011;25529;49.346;20.886;2023-05-07T01:29:49;31.92;;;16.58;;
39860;SDS011;25529;49.346;20.886;2023-05-07T01:32:18;31.17;;;16.02;;
39860;SDS011;25529;49.346;20.886;2023-05-07T01:34:44;29.58;;;16.42;;
39860;SDS011;25529;49.346;20.886;2023-05-07T01:37:10;30.10;;;16.02;;
39860;SDS011;25529;49.346;20.886;2023-05-07T01:39:37;30.40;;;15.75;;
39860;SDS011;25529;49.346;20.886;2023-05-07T01:42:03;29.50;;;15.82;;
39860;SDS011;25529;49.346;20.886;2023-05-07T01:44:28;30.42;;;15.95;;
39860;SDS011;25529;49.346;20.886;2023-05-07T01:46:54;30.85;;;15.55;;
39860;SDS011;25529;49.346;20.886;2023-05-07T01:49:20;32.08;;;15.98;;
39860;SDS011;25529;49.346;20.886;2023-05-07T01:51:45;28.95;;;15.68;;
39860;SDS011;25529;49.346;20.886;2023-05-07T01:54:11;32.22;;;15.77;;
39860;SDS011;25529;49.346;20.886;2023-05-07T01:56:36;30.23;;;15.32;;
39860;SDS011;25529;49.346;20.886;2023-05-07T01:59:02;32.65;;;15.05;;
39860;SDS011;25529;49.346;20.886;2023-05-07T02:01:27;31.38;;;15.98;;
39860;SDS011;25529;49.346;20.886;2023-05-07T02:03:53;31.23;;;15.93;;
39860;SDS011;25529;49.346;20.886;2023-05-07T02:06:18;31.58;;;16.85;;
39860;SDS011;25529;49.346;20.886;2023-05-07T02:08:44;31.90;;;15.80;;
39860;SDS011;25529;49.346;20.886;2023-05-07T02:11:10;31.55;;;16.23;;
39860;SDS011;25529;49.346;20.886;2023-05-07T02:13:35;33.75;;;17.40;;
39860;SDS011;25529;49.346;20.886;2023-05-07T02:16:01;31.55;;;16.95;;
39860;SDS011;25529;49.346;20.886;2023-05-07T02:18:27;33.40;;;17.35;;
39860;SDS011;25529;49.346;20.886;2023-05-07T02:20:52;33.53;;;17.25;;
39860;SDS011;25529;49.346;20.886;2023-05-07T02:23:18;32.30;;;16.98;;
39860;SDS011;25529;49.346;20.886;2023-05-07T02:25:43;32.38;;;17.75;;
39860;SDS011;25529;49.346;20.886;2023-05-07T02:28:08;36.35;;;17.13;;
39860;SDS011;25529;49.346;20.886;2023-05-07T02:30:34;36.03;;;18.77;;
39860;SDS011;25529;49.346;20.886;2023-05-07T02:32:59;36.40;;;17.13;;
39860;SDS011;25529;49.346;20.886;2023-05-07T02:35:25;32.75;;;17.70;;
39860;SDS011;25529;49.346;20.886;2023-05-07T02:37:51;35.25;;;17.42;;
39860;SDS011;25529;49.346;20.886;2023-05-07T02:40:16;31.77;;;16.35;;
39860;SDS011;25529;49.346;20.886;2023-05-07T02:42:41;33.65;;;16.42;;
39860;SDS011;25529;49.346;20.886;2023-05-07T02:45:07;31.75;;;16.15;;
39860;SDS011;25529;49.346;20.886;2023-05-07T02:47:32;29.95;;;14.98;;
39860;SDS011;25529;49.346;20.886;2023-05-07T02:49:58;30.23;;;15.45;;
39860;SDS011;25529;49.346;20.886;2023-05-07T02:52:23;31.30;;;15.50;;
39860;SDS011;25529;49.346;20.886;2023-05-07T02:54:48;29.15;;;14.93;;
39860;SDS011;25529;49.346;20.886;2023-05-07T02:57:14;29.67;;;15.55;;
39860;SDS011;25529;49.346;20.886;2023-05-07T02:59:39;28.92;;;15.45;;
39860;SDS011;25529;49.346;20.886;2023-05-07T03:02:05;31.17;;;16.20;;
39860;SDS011;25529;49.346;20.886;2023-05-07T03:04:30;31.85;;;16.80;;
39860;SDS011;25529;49.346;20.886;2023-05-07T03:06:55;30.45;;;15.93;;
39860;SDS011;25529;49.346;20.886;2023-05-07T03:09:21;32.13;;;17.15;;
39860;SDS011;25529;49.346;20.886;2023-05-07T03:11:46;28.75;;;15.18;;
39860;SDS011;25529;49.346;20.886;2023-05-07T03:14:12;29.65;;;14.65;;
39860;SDS011;25529;49.346;20.886;2023-05-07T03:16:37;31.00;;;15.23;;
39860;SDS011;25529;49.346;20.886;2023-05-07T03:19:03;30.33;;;15.63;;
39860;SDS011;25529;49.346;20.886;2023-05-07T03:21:28;31.48;;;15.82;;
39860;SDS011;25529;49.346;20.886;2023-05-07T03:23:53;31.63;;;15.48;;
39860;SDS011;25529;49.346;20.886;2023-05-07T03:26:19;31.13;;;15.73;;
39860;SDS011;25529;49.346;20.886;2023-05-07T03:28:45;31.30;;;15.90;;
39860;SDS011;25529;49.346;20.886;2023-05-07T03:31:10;32.03;;;16.17;;
39860;SDS011;25529;49.346;20.886;2023-05-07T03:33:37;29.77;;;14.80;;
39860;SDS011;25529;49.346;20.886;2023-05-07T03:36:04;32.10;;;15.35;;
39860;SDS011;25529;49.346;20.886;2023-05-07T03:38:29;32.75;;;15.68;;
39860;SDS011;25529;49.346;20.886;2023-05-07T03:40:55;31.15;;;15.88;;
39860;SDS011;25529;49.346;20.886;2023-05-07T03:43:20;31.13;;;16.58;;
39860;SDS011;25529;49.346;20.886;2023-05-07T03:45:45;33.10;;;17.85;;
39860;SDS011;25529;49.346;20.886;2023-05-07T03:48:11;31.67;;;16.38;;
39860;SDS011;25529;49.346;20.886;2023-05-07T03:50:37;31.67;;;16.73;;
39860;SDS011;25529;49.346;20.886;2023-05-07T03:53:03;33.65;;;17.23;;
39860;SDS011;25529;49.346;20.886;2023-05-07T03:55:28;33.72;;;16.90;;
39860;SDS011;25529;49.346;20.886;2023-05-07T03:57:54;30.83;;;16.33;;
39860;SDS011;25529;49.346;20.886;2023-05-07T04:00:19;35.20;;;17.25;;
39860;SDS011;25529;49.346;20.886;2023-05-07T04:02:46;35.40;;;19.38;;
39860;SDS011;25529;49.346;20.886;2023-05-07T04:05:11;34.45;;;17.25;;
39860;SDS011;25529;49.346;20.886;2023-05-07T04:07:37;32.75;;;17.52;;
39860;SDS011;25529;49.346;20.886;2023-05-07T04:10:02;34.97;;;18.23;;
39860;SDS011;25529;49.346;20.886;2023-05-07T04:12:28;34.63;;;18.08;;
39860;SDS011;25529;49.346;20.886;2023-05-07T04:14:53;32.60;;;18.08;;
39860;SDS011;25529;49.346;20.886;2023-05-07T04:17:19;34.65;;;17.83;;
39860;SDS011;25529;49.346;20.886;2023-05-07T04:19:44;32.63;;;17.65;;
39860;SDS011;25529;49.346;20.886;2023-05-07T04:22:10;33.25;;;17.83;;
39860;SDS011;25529;49.346;20.886;2023-05-07T04:24:35;31.25;;;16.63;;
39860;SDS011;25529;49.346;20.886;2023-05-07T04:27:01;32.42;;;17.55;;
39860;SDS011;25529;49.346;20.886;2023-05-07T04:29:26;36.20;;;18.67;;
39860;SDS011;25529;49.346;20.886;2023-05-07T04:31:52;31.38;;;16.60;;
39860;SDS011;25529;49.346;20.886;2023-05-07T04:34:17;34.92;;;17.92;;
39860;SDS011;25529;49.346;20.886;2023-05-07T04:36:43;35.03;;;18.30;;
39860;SDS011;25529;49.346;20.886;2023-05-07T04:39:08;34.03;;;17.90;;
39860;SDS011;25529;49.346;20.886;2023-05-07T04:41:35;34.30;;;18.83;;
39860;SDS011;25529;49.346;20.886;2023-05-07T04:44:01;34.45;;;18.60;;
39860;SDS011;25529;49.346;20.886;2023-05-07T04:46:29;34.75;;;18.90;;
39860;SDS011;25529;49.346;20.886;2023-05-07T04:48:54;32.80;;;18.35;;
39860;SDS011;25529;49.346;20.886;2023-05-07T04:51:20;34.70;;;19.52;;
39860;SDS011;25529;49.346;20.886;2023-05-07T04:53:45;34.00;;;18.45;;
39860;SDS011;25529;49.346;20.886;2023-05-07T04:56:10;35.33;;;19.08;;
39860;SDS011;25529;49.346;20.886;2023-05-07T04:58:36;37.45;;;18.80;;
39860;SDS011;25529;49.346;20.886;2023-05-07T05:01:01;35.53;;;18.73;;
39860;SDS011;25529;49.346;20.886;2023-05-07T05:03:27;37.83;;;21.13;;
39860;SDS011;25529;49.346;20.886;2023-05-07T05:05:52;33.72;;;18.70;;
39860;SDS011;25529;49.346;20.886;2023-05-07T05:08:18;36.20;;;18.20;;
39860;SDS011;25529;49.346;20.886;2023-05-07T05:10:43;38.03;;;20.70;;
39860;SDS011;25529;49.346;20.886;2023-05-07T05:13:09;34.60;;;18.38;;
39860;SDS011;25529;49.346;20.886;2023-05-07T05:15:35;33.97;;;18.65;;
39860;SDS011;25529;49.346;20.886;2023-05-07T05:18:00;34.13;;;19.13;;
39860;SDS011;25529;49.346;20.886;2023-05-07T05:20:26;35.65;;;20.05;;
39860;SDS011;25529;49.346;20.886;2023-05-07T05:22:51;33.58;;;17.60;;
39860;SDS011;25529;49.346;20.886;2023-05-07T05:25:17;33.92;;;18.77;;
39860;SDS011;25529;49.346;20.886;2023-05-07T05:27:42;34.55;;;18.38;;
39860;SDS011;25529;49.346;20.886;2023-05-07T05:30:08;33.10;;;18.80;;
39860;SDS011;25529;49.346;20.886;2023-05-07T05:32:33;33.35;;;18.65;;
39860;SDS011;25529;49.346;20.886;2023-05-07T05:34:58;34.83;;;19.20;;
39860;SDS011;25529;49.346;20.886;2023-05-07T05:37:24;34.35;;;18.48;;
39860;SDS011;25529;49.346;20.886;2023-05-07T05:39:50;30.80;;;16.20;;
39860;SDS011;25529;49.346;20.886;2023-05-07T05:42:15;31.30;;;16.38;;
39860;SDS011;25529;49.346;20.886;2023-05-07T05:44:41;34.20;;;17.20;;
39860;SDS011;25529;49.346;20.886;2023-05-07T05:47:06;31.08;;;15.73;;
39860;SDS011;25529;49.346;20.886;2023-05-07T05:49:32;31.52;;;16.70;;
39860;SDS011;25529;49.346;20.886;2023-05-07T05:51:57;30.00;;;15.65;;
39860;SDS011;25529;49.346;20.886;2023-05-07T05:54:22;32.33;;;15.50;;
39860;SDS011;25529;49.346;20.886;2023-05-07T05:56:48;32.63;;;16.63;;
39860;SDS011;25529;49.346;20.886;2023-05-07T05:59:13;33.33;;;18.33;;
39860;SDS011;25529;49.346;20.886;2023-05-07T06:01:39;29.42;;;14.73;;
39860;SDS011;25529;49.346;20.886;2023-05-07T06:04:04;30.95;;;15.02;;
39860;SDS011;25529;49.346;20.886;2023-05-07T06:06:29;28.75;;;13.82;;
39860;SDS011;25529;49.346;20.886;2023-05-07T06:08:56;28.13;;;13.80;;
39860;SDS011;25529;49.346;20.886;2023-05-07T06:11:21;26.35;;;12.15;;
39860;SDS011;25529;49.346;20.886;2023-05-07T06:13:46;28.75;;;13.88;;
39860;SDS011;25529;49.346;20.886;2023-05-07T06:16:12;28.25;;;12.63;;
39860;SDS011;25529;49.346;20.886;2023-05-07T06:18:37;27.83;;;12.60;;
39860;SDS011;25529;49.346;20.886;2023-05-07T06:21:09;28.85;;;11.93;;
39860;SDS011;25529;49.346;20.886;2023-05-07T06:23:34;25.75;;;12.00;;
39860;SDS011;25529;49.346;20.886;2023-05-07T06:26:03;25.58;;;11.77;;
39860;SDS011;25529;49.346;20.886;2023-05-07T06:28:28;25.85;;;11.30;;
39860;SDS011;25529;49.346;20.886;2023-05-07T06:30:55;25.77;;;11.32;;
39860;SDS011;25529;49.346;20.886;2023-05-07T06:33:21;26.52;;;12.00;;
39860;SDS011;25529;49.346;20.886;2023-05-07T06:35:46;24.63;;;11.60;;
39860;SDS011;25529;49.346;20.886;2023-05-07T06:38:12;25.67;;;12.05;;
39860;SDS011;25529;49.346;20.886;2023-05-07T06:43:40;27.20;;;13.27;;
39860;SDS011;25529;49.346;20.886;2023-05-07T06:46:05;25.85;;;11.73;;
39860;SDS011;25529;49.346;20.886;2023-05-07T06:48:30;25.65;;;11.68;;
39860;SDS011;25529;49.346;20.886;2023-05-07T06:50:56;28.17;;;11.65;;
39860;SDS011;25529;49.346;20.886;2023-05-07T06:53:23;25.25;;;12.20;;
39860;SDS011;25529;49.346;20.886;2023-05-07T06:55:48;26.80;;;11.68;;
39860;SDS011;25529;49.346;20.886;2023-05-07T06:58:13;25.92;;;11.90;;
39860;SDS011;25529;49.346;20.886;2023-05-07T07:00:39;26.05;;;12.15;;
39860;SDS011;25529;49.346;20.886;2023-05-07T07:03:05;24.98;;;12.20;;
39860;SDS011;25529;49.346;20.886;2023-05-07T07:05:31;25.05;;;12.52;;
39860;SDS011;25529;49.346;20.886;2023-05-07T07:07:56;28.88;;;15.55;;
39860;SDS011;25529;49.346;20.886;2023-05-07T07:13:05;29.02;;;14.52;;
39860;SDS011;25529;49.346;20.886;2023-05-07T07:15:31;27.65;;;12.90;;
39860;SDS011;25529;49.346;20.886;2023-05-07T07:17:56;24.60;;;11.80;;
39860;SDS011;25529;49.346;20.886;2023-05-07T07:20:21;25.75;;;11.93;;
39860;SDS011;25529;49.346;20.886;2023-05-07T07:22:49;26.55;;;12.07;;
39860;SDS011;25529;49.346;20.886;2023-05-07T07:25:14;27.50;;;12.52;;
39860;SDS011;25529;49.346;20.886;2023-05-07T07:27:40;41.90;;;23.23;;
39860;SDS011;25529;49.346;20.886;2023-05-07T07:30:05;25.67;;;12.15;;
39860;SDS011;25529;49.346;20.886;2023-05-07T07:32:31;25.83;;;11.85;;
39860;SDS011;25529;49.346;20.886;2023-05-07T07:34:58;24.52;;;11.68;;
39860;SDS011;25529;49.346;20.886;2023-05-07T07:37:23;24.42;;;11.65;;
39860;SDS011;25529;49.346;20.886;2023-05-07T07:39:50;24.20;;;11.45;;
39860;SDS011;25529;49.346;20.886;2023-05-07T07:42:15;26.55;;;11.63;;
39860;SDS011;25529;49.346;20.886;2023-05-07T07:44:41;96.97;;;63.53;;
39860;SDS011;25529;49.346;20.886;2023-05-07T07:47:15;44.50;;;27.83;;
39860;SDS011;25529;49.346;20.886;2023-05-07T07:49:42;25.15;;;11.48;;
39860;SDS011;25529;49.346;20.886;2023-05-07T07:52:07;24.10;;;11.20;;
39860;SDS011;25529;49.346;20.886;2023-05-07T07:54:33;26.48;;;12.55;;
39860;SDS011;25529;49.346;20.886;2023-05-07T07:56:58;26.52;;;11.75;;
39860;SDS011;25529;49.346;20.886;2023-05-07T07:59:23;23.55;;;11.10;;
39860;SDS011;25529;49.346;20.886;2023-05-07T08:04:51;43.50;;;21.98;;
39860;SDS011;25529;49.346;20.886;2023-05-07T08:07:17;41.97;;;23.05;;
39860;SDS011;25529;49.346;20.886;2023-05-07T08:09:45;31.45;;;16.98;;
39860;SDS011;25529;49.346;20.886;2023-05-07T08:12:11;23.00;;;10.43;;
39860;SDS011;25529;49.346;20.886;2023-05-07T08:14:36;23.63;;;9.82;;
39860;SDS011;25529;49.346;20.886;2023-05-07T08:17:03;22.90;;;9.75;;
39860;SDS011;25529;49.346;20.886;2023-05-07T08:19:28;22.85;;;9.52;;
39860;SDS011;25529;49.346;20.886;2023-05-07T08:21:54;22.20;;;9.43;;
39860;SDS011;25529;49.346;20.886;2023-05-07T08:24:20;27.17;;;9.02;;
39860;SDS011;25529;49.346;20.886;2023-05-07T08:26:46;21.48;;;7.93;;
39860;SDS011;25529;49.346;20.886;2023-05-07T08:29:11;20.85;;;8.55;;
39860;SDS011;25529;49.346;20.886;2023-05-07T08:31:36;21.52;;;8.60;;
39860;SDS011;25529;49.346;20.886;2023-05-07T08:34:04;20.92;;;8.80;;
39860;SDS011;25529;49.346;20.886;2023-05-07T08:36:30;20.58;;;8.30;;
39860;SDS011;25529;49.346;20.886;2023-05-07T08:38:55;25.95;;;10.65;;
39860;SDS011;25529;49.346;20.886;2023-05-07T08:41:21;21.45;;;8.35;;
39860;SDS011;25529;49.346;20.886;2023-05-07T08:43:49;20.58;;;8.20;;
39860;SDS011;25529;49.346;20.886;2023-05-07T08:46:20;19.73;;;7.63;;
39860;SDS011;25529;49.346;20.886;2023-05-07T08:48:49;19.38;;;7.43;;
39860;SDS011;25529;49.346;20.886;2023-05-07T08:51:19;74.45;;;26.60;;
39860;SDS011;25529;49.346;20.886;2023-05-07T08:53:45;20.48;;;8.05;;
39860;SDS011;25529;49.346;20.886;2023-05-07T08:56:13;20.05;;;7.57;;
39860;SDS011;25529;49.346;20.886;2023-05-07T08:58:43;20.67;;;7.63;;
39860;SDS011;25529;49.346;20.886;2023-05-07T09:01:09;18.05;;;6.80;;
39860;SDS011;25529;49.346;20.886;2023-05-07T09:03:52;20.95;;;7.80;;
39860;SDS011;25529;49.346;20.886;2023-05-07T09:06:19;20.23;;;7.57;;
39860;SDS011;25529;49.346;20.886;2023-05-07T09:08:54;17.00;;;6.28;;
39860;SDS011;25529;49.346;20.886;2023-05-07T09:11:23;16.75;;;6.22;;
39860;SDS011;25529;49.346;20.886;2023-05-07T09:13:53;18.80;;;6.30;;
39860;SDS011;25529;49.346;20.886;2023-05-07T09:16:20;17.15;;;6.07;;
39860;SDS011;25529;49.346;20.886;2023-05-07T09:18:48;17.15;;;5.78;;
39860;SDS011;25529;49.346;20.886;2023-05-07T09:21:17;14.73;;;5.45;;
39860;SDS011;25529;49.346;20.886;2023-05-07T09:23:47;13.90;;;5.10;;
39860;SDS011;25529;49.346;20.886;2023-05-07T09:26:14;14.07;;;5.30;;
39860;SDS011;25529;49.346;20.886;2023-05-07T09:31:30;13.93;;;4.80;;
39860;SDS011;25529;49.346;20.886;2023-05-07T09:37:06;13.75;;;4.75;;
39860;SDS011;25529;49.346;20.886;2023-05-07T09:39:51;11.18;;;4.53;;
39860;SDS011;25529;49.346;20.886;2023-05-07T09:42:22;11.10;;;4.15;;
39860;SDS011;25529;49.346;20.886;2023-05-07T09:44:49;12.45;;;4.55;;
39860;SDS011;25529;49.346;20.886;2023-05-07T09:47:17;11.30;;;4.53;;
39860;SDS011;25529;49.346;20.886;2023-05-07T09:49:45;14.15;;;4.65;;
39860;SDS011;25529;49.346;20.886;2023-05-07T09:52:12;7.45;;;3.80;;
39860;SDS011;25529;49.346;20.886;2023-05-07T09:54:41;10.90;;;4.22;;
39860;SDS011;25529;49.346;20.886;2023-05-07T09:57:10;9.95;;;4.47;;
39860;SDS011;25529;49.346;20.886;2023-05-07T09:59:37;9.88;;;3.83;;
39860;SDS011;25529;49.346;20.886;2023-05-07T10:05:06;20.90;;;7.13;;
39860;SDS011;25529;49.346;20.886;2023-05-07T10:07:33;9.88;;;3.90;;
39860;SDS011;25529;49.346;20.886;2023-05-07T10:09:59;5.72;;;3.47;;
39860;SDS011;25529;49.346;20.886;2023-05-07T10:12:25;7.28;;;3.47;;
39860;SDS011;25529;49.346;20.886;2023-05-07T10:14:51;37.67;;;19.40;;
39860;SDS011;25529;49.346;20.886;2023-05-07T10:17:17;12.60;;;4.47;;
39860;SDS011;25529;49.346;20.886;2023-05-07T10:19:46;8.88;;;3.58;;
39860;SDS011;25529;49.346;20.886;2023-05-07T10:22:12;6.68;;;3.20;;
39860;SDS011;25529;49.346;20.886;2023-05-07T10:24:39;8.20;;;3.90;;
39860;SDS011;25529;49.346;20.886;2023-05-07T10:27:07;11.48;;;3.67;;
39860;SDS011;25529;49.346;20.886;2023-05-07T10:29:45;6.43;;;3.30;;
39860;SDS011;25529;49.346;20.886;2023-05-07T10:32:35;6.72;;;3.17;;
39860;SDS011;25529;49.346;20.886;2023-05-07T10:38:05;4.22;;;3.00;;
39860;SDS011;25529;49.346;20.886;2023-05-07T10:40:30;5.57;;;3.05;;
39860;SDS011;25529;49.346;20.886;2023-05-07T10:42:56;6.03;;;3.20;;
39860;SDS011;25529;49.346;20.886;2023-05-07T10:45:23;7.65;;;3.10;;
39860;SDS011;25529;49.346;20.886;2023-05-07T10:48:07;4.43;;;3.00;;
39860;SDS011;25529;49.346;20.886;2023-05-07T10:50:36;6.50;;;3.30;;
39860;SDS011;25529;49.346;20.886;2023-05-07T10:58:35;6.00;;;3.20;;
39860;SDS011;25529;49.346;20.886;2023-05-07T11:01:03;3.55;;;2.90;;
39860;SDS011;25529;49.346;20.886;2023-05-07T11:03:29;7.70;;;3.35;;
39860;SDS011;25529;49.346;20.886;2023-05-07T11:08:56;4.50;;;3.00;;
39860;SDS011;25529;49.346;20.886;2023-05-07T11:14:08;5.03;;;3.20;;
39860;SDS011;25529;49.346;20.886;2023-05-07T11:16:34;5.15;;;3.25;;
39860;SDS011;25529;49.346;20.886;2023-05-07T11:19:01;4.72;;;3.40;;
39860;SDS011;25529;49.346;20.886;2023-05-07T11:24:02;9.23;;;3.65;;
39860;SDS011;25529;49.346;20.886;2023-05-07T11:26:42;6.43;;;3.42;;
39860;SDS011;25529;49.346;20.886;2023-05-07T11:29:12;7.55;;;3.72;;
39860;SDS011;25529;49.346;20.886;2023-05-07T11:31:37;11.55;;;4.10;;
39860;SDS011;25529;49.346;20.886;2023-05-07T11:34:06;6.93;;;3.67;;
39860;SDS011;25529;49.346;20.886;2023-05-07T11:36:32;6.60;;;3.55;;
39860;SDS011;25529;49.346;20.886;2023-05-07T11:38:58;6.50;;;3.70;;
39860;SDS011;25529;49.346;20.886;2023-05-07T11:41:32;7.63;;;3.85;;
39860;SDS011;25529;49.346;20.886;2023-05-07T11:43:58;14.48;;;4.72;;
39860;SDS011;25529;49.346;20.886;2023-05-07T11:46:26;10.68;;;4.38;;
39860;SDS011;25529;49.346;20.886;2023-05-07T11:51:57;9.98;;;4.50;;
39860;SDS011;25529;49.346;20.886;2023-05-07T11:54:26;11.02;;;4.30;;
39860;SDS011;25529;49.346;20.886;2023-05-07T11:56:53;13.15;;;4.68;;
39860;SDS011;25529;49.346;20.886;2023-05-07T11:59:21;10.55;;;4.18;;
39860;SDS011;25529;49.346;20.886;2023-05-07T12:10:15;11.02;;;4.07;;
39860;SDS011;25529;49.346;20.886;2023-05-07T12:12:46;8.93;;;4.10;;
39860;SDS011;25529;49.346;20.886;2023-05-07T12:15:17;9.15;;;3.95;;
39860;SDS011;25529;49.346;20.886;2023-05-07T12:17:47;9.18;;;4.20;;
39860;SDS011;25529;49.346;20.886;2023-05-07T12:20:13;10.27;;;4.25;;
39860;SDS011;25529;49.346;20.886;2023-05-07T12:22:40;9.95;;;4.30;;
39860;SDS011;25529;49.346;20.886;2023-05-07T12:25:05;10.32;;;4.32;;
39860;SDS011;25529;49.346;20.886;2023-05-07T12:27:31;10.55;;;4.30;;
39860;SDS011;25529;49.346;20.886;2023-05-07T12:29:58;12.23;;;4.55;;
39860;SDS011;25529;49.346;20.886;2023-05-07T12:32:26;13.52;;;4.93;;
39860;SDS011;25529;49.346;20.886;2023-05-07T12:34:52;10.95;;;4.38;;
39860;SDS011;25529;49.346;20.886;2023-05-07T12:37:22;10.95;;;4.38;;
39860;SDS011;25529;49.346;20.886;2023-05-07T12:39:49;11.25;;;4.78;;
39860;SDS011;25529;49.346;20.886;2023-05-07T12:42:15;13.23;;;4.80;;
39860;SDS011;25529;49.346;20.886;2023-05-07T12:44:41;10.93;;;4.43;;
39860;SDS011;25529;49.346;20.886;2023-05-07T12:47:07;12.77;;;4.57;;
39860;SDS011;25529;49.346;20.886;2023-05-07T12:49:34;10.65;;;4.70;;
39860;SDS011;25529;49.346;20.886;2023-05-07T12:52:02;12.63;;;4.68;;
39860;SDS011;25529;49.346;20.886;2023-05-07T12:54:34;11.25;;;4.47;;
39860;SDS011;25529;49.346;20.886;2023-05-07T12:57:13;11.88;;;4.63;;
39860;SDS011;25529;49.346;20.886;2023-05-07T12:59:40;12.18;;;4.50;;
39860;SDS011;25529;49.346;20.886;2023-05-07T13:02:05;12.75;;;4.88;;
39860;SDS011;25529;49.346;20.886;2023-05-07T13:04:31;13.57;;;4.97;;
39860;SDS011;25529;49.346;20.886;2023-05-07T13:06:56;12.75;;;4.53;;
39860;SDS011;25529;49.346;20.886;2023-05-07T13:12:18;12.65;;;4.50;;
39860;SDS011;25529;49.346;20.886;2023-05-07T13:14:43;11.63;;;4.60;;
39860;SDS011;25529;49.346;20.886;2023-05-07T13:20:12;10.95;;;4.30;;
39860;SDS011;25529;49.346;20.886;2023-05-07T13:22:38;12.23;;;4.57;;
39860;SDS011;25529;49.346;20.886;2023-05-07T13:25:03;11.30;;;4.60;;
39860;SDS011;25529;49.346;20.886;2023-05-07T13:27:28;9.43;;;4.40;;
39860;SDS011;25529;49.346;20.886;2023-05-07T13:29:55;10.80;;;4.38;;
39860;SDS011;25529;49.346;20.886;2023-05-07T13:32:22;12.75;;;4.75;;
39860;SDS011;25529;49.346;20.886;2023-05-07T13:34:56;12.50;;;4.28;;
39860;SDS011;25529;49.346;20.886;2023-05-07T13:37:21;10.82;;;4.30;;
39860;SDS011;25529;49.346;20.886;2023-05-07T13:39:48;11.10;;;4.40;;
39860;SDS011;25529;49.346;20.886;2023-05-07T13:42:13;13.38;;;4.55;;
39860;SDS011;25529;49.346;20.886;2023-05-07T13:44:38;13.50;;;4.70;;
39860;SDS011;25529;49.346;20.886;2023-05-07T13:47:04;12.52;;;4.60;;
39860;SDS011;25529;49.346;20.886;2023-05-07T13:49:30;11.43;;;4.53;;
39860;SDS011;25529;49.346;20.886;2023-05-07T13:51:55;13.88;;;4.20;;
39860;SDS011;25529;49.346;20.886;2023-05-07T13:54:21;14.55;;;4.47;;
39860;SDS011;25529;49.346;20.886;2023-05-07T14:02:27;15.18;;;5.63;;
39860;SDS011;25529;49.346;20.886;2023-05-07T14:04:57;17.95;;;6.22;;
39860;SDS011;25529;49.346;20.886;2023-05-07T14:07:25;15.25;;;5.65;;
39860;SDS011;25529;49.346;20.886;2023-05-07T14:09:52;15.98;;;5.88;;
39860;SDS011;25529;49.346;20.886;2023-05-07T14:12:17;16.77;;;6.43;;
39860;SDS011;25529;49.346;20.886;2023-05-07T14:14:42;18.85;;;7.13;;
39860;SDS011;25529;49.346;20.886;2023-05-07T14:17:23;19.40;;;6.80;;
39860;SDS011;25529;49.346;20.886;2023-05-07T14:19:51;18.25;;;6.13;;
39860;SDS011;25529;49.346;20.886;2023-05-07T14:22:19;17.70;;;6.68;;
39860;SDS011;25529;49.346;20.886;2023-05-07T14:24:44;19.85;;;7.80;;
39860;SDS011;25529;49.346;20.886;2023-05-07T14:27:10;21.08;;;7.57;;
39860;SDS011;25529;49.346;20.886;2023-05-07T14:29:35;19.80;;;7.53;;
39860;SDS011;25529;49.346;20.886;2023-05-07T14:32:01;19.85;;;7.97;;
39860;SDS011;25529;49.346;20.886;2023-05-07T14:34:29;21.17;;;8.40;;
39860;SDS011;25529;49.346;20.886;2023-05-07T14:36:54;19.88;;;7.80;;
39860;SDS011;25529;49.346;20.886;2023-05-07T14:39:21;20.23;;;8.00;;
39860;SDS011;25529;49.346;20.886;2023-05-07T14:41:47;19.85;;;7.93;;
39860;SDS011;25529;49.346;20.886;2023-05-07T14:50:18;22.08;;;9.07;;
39860;SDS011;25529;49.346;20.886;2023-05-07T14:52:43;21.80;;;9.27;;
39860;SDS011;25529;49.346;20.886;2023-05-07T14:55:08;24.35;;;9.38;;
39860;SDS011;25529;49.346;20.886;2023-05-07T14:57:34;22.45;;;9.38;;
39860;SDS011;25529;49.346;20.886;2023-05-07T15:00:00;25.10;;;10.23;;
39860;SDS011;25529;49.346;20.886;2023-05-07T15:02:26;23.52;;;10.00;;
39860;SDS011;25529;49.346;20.886;2023-05-07T15:04:51;24.52;;;10.88;;
39860;SDS011;25529;49.346;20.886;2023-05-07T15:07:17;23.85;;;10.55;;
39860;SDS011;25529;49.346;20.886;2023-05-07T15:09:42;22.08;;;10.25;;
39860;SDS011;25529;49.346;20.886;2023-05-07T15:12:08;22.55;;;10.02;;
39860;SDS011;25529;49.346;20.886;2023-05-07T15:14:33;22.33;;;9.60;;
39860;SDS011;25529;49.346;20.886;2023-05-07T15:17:03;24.02;;;10.13;;
39860;SDS011;25529;49.346;20.886;2023-05-07T15:19:29;22.55;;;9.57;;
39860;SDS011;25529;49.346;20.886;2023-05-07T15:21:58;22.30;;;9.63;;